Terminal Aerodrome Forecast
Issued by NWS Denver/Boulder, CO

Home | Current Version | Previous Version | Graphics & Text | Print | Product List | Glossary On
Versions: 1 2 3 4 5 6 7 8 9 10 11 12 13 14 15 16 17 18 19 20 21 22 23 24 25 26 27 28 29 30 31 32 33 34 35 36 37
000
FTUS45 KBOU 201415 AAA
TAFDEN
TAF AMD
KDEN 201415Z 2014/2118 25006KT P6SM SCT120 BKN220
     FM201600 15018G26KT P6SM SCT090 BKN120
     FM202000 12018G28KT P6SM VCSH SCT030 BKN050 OVC070
     FM202300 09016G24KT P6SM -RA BKN030 OVC050
     FM210300 06010KT 3SM -RA BR SCT006 OVC012
     FM210600 34006KT 2SM -RASN BR OVC006
      TEMPO 2106/2110 3/4SM -SN BR OVC003
     FM211400 34006KT P6SM SCT006 OVC012=

USA.gov is the U.S. government's official web portal to all federal, state and local government web resources and services.